Time;durP1;ratioP1;P1;durP2;ratioP2;P2;SDS_P1;SDS_P2;PMS_P1;PMS_P2;Temp;Humidity;BMP_temperature;BMP_pressure;BME280_temperature;BME280_humidity;BME280_pressure;Samples;Min_cycle;Max_cycle;Signal;HPM_P1;HPM_P2
2023/06/26 00:00:50;;;;;;;;;6.00;6.00;;;;;24.94;58.69;100941.63;5084228;27;48395;-80
2023/06/26 00:03:16;;;;;;;;;4.00;4.00;;;;;24.85;58.15;100943.88;5083718;27;48046;-79
2023/06/26 00:05:43;;;;;;;;;6.00;6.00;;;;;24.91;59.00;100941.75;5101541;27;45485;-79
2023/06/26 00:08:08;;;;;;;;;8.33;7.33;;;;;24.97;57.46;100950.63;5082660;27;45560;-79
2023/06/26 00:10:34;;;;;;;;;7.00;5.00;;;;;24.92;58.14;100943.50;5101833;27;45769;-78
2023/06/26 00:13:00;;;;;;;;;10.33;6.67;;;;;24.97;58.17;100953.34;5082515;27;46086;-78
2023/06/26 00:15:25;;;;;;;;;5.00;5.00;;;;;24.91;57.64;100940.88;5083812;27;45680;-80
2023/06/26 00:17:53;;;;;;;;;7.00;6.67;;;;;25.00;57.40;100953.19;5100384;27;45420;-80
2023/06/26 00:20:19;;;;;;;;;5.00;5.00;;;;;24.73;57.70;100953.41;5083119;27;45446;-80
2023/06/26 00:22:45;;;;;;;;;6.33;6.33;;;;;24.66;58.44;100960.03;5084488;27;47203;-80
2023/06/26 00:25:10;;;;;;;;;5.00;5.00;;;;;24.52;58.29;100960.59;5083147;27;45632;-78
2023/06/26 00:27:35;;;;;;;;;6.67;5.67;;;;;24.30;58.69;100949.69;5101539;27;45162;-79
2023/06/26 00:30:01;;;;;;;;;6.00;5.33;;;;;24.20;59.34;100972.72;5100420;27;45446;-79
2023/06/26 00:32:26;;;;;;;;;5.00;4.00;;;;;24.10;59.52;100959.50;5101461;27;45779;-78
2023/06/26 00:34:53;;;;;;;;;7.00;5.00;;;;;24.01;59.76;100970.72;5082685;27;44839;-79
2023/06/26 00:37:18;;;;;;;;;4.00;3.00;;;;;24.00;59.92;100976.22;5081627;27;45412;-80
2023/06/26 00:39:43;;;;;;;;;6.00;5.00;;;;;24.02;59.11;100983.38;5101142;27;45199;-79
2023/06/26 00:42:09;;;;;;;;;4.67;4.67;;;;;23.96;59.80;100979.06;5101224;27;45889;-79
2023/06/26 00:44:34;;;;;;;;;7.33;5.00;;;;;23.90;59.99;100984.72;5101125;27;45455;-78
2023/06/26 00:46:59;;;;;;;;;5.00;5.00;;;;;23.84;60.19;100981.34;5082829;27;45034;-79
2023/06/26 00:49:28;;;;;;;;;3.33;3.33;;;;;23.98;60.79;100989.88;5081909;27;45389;-79
2023/06/26 00:51:54;;;;;;;;;3.67;3.67;;;;;23.89;60.83;100987.47;5081695;27;46289;-79
2023/06/26 00:54:22;;;;;;;;;5.00;5.00;;;;;23.93;61.23;100990.03;5082505;27;45477;-79
2023/06/26 00:56:48;;;;;;;;;3.67;3.67;;;;;23.87;61.16;100983.94;5084808;27;45970;-79
2023/06/26 00:59:13;;;;;;;;;5.67;4.33;;;;;23.82;61.21;100985.97;5083782;27;45444;-79
2023/06/26 01:01:39;;;;;;;;;3.67;3.67;;;;;23.89;61.16;100995.63;5100121;27;46887;-79
2023/06/26 01:04:05;;;;;;;;;4.67;4.67;;;;;23.99;60.70;100994.34;5082483;27;46048;-79
2023/06/26 01:06:35;;;;;;;;;4.33;4.33;;;;;23.99;60.55;100993.47;5080992;27;45540;-78
2023/06/26 01:09:01;;;;;;;;;6.00;6.00;;;;;23.89;60.50;101001.06;5099325;27;45889;-78
2023/06/26 01:11:27;;;;;;;;;5.67;5.00;;;;;23.81;62.12;100995.03;5081578;27;47172;-78
2023/06/26 01:13:59;;;;;;;;;5.00;5.00;;;;;23.81;62.21;100995.91;5100076;27;45544;-79
2023/06/26 01:16:25;;;;;;;;;4.67;4.33;;;;;23.64;62.27;101001.94;5100723;27;45407;-79
2023/06/26 01:18:55;;;;;;;;;5.00;4.33;;;;;23.48;63.15;101003.44;5099765;27;45459;-79
2023/06/26 01:21:22;;;;;;;;;7.00;7.00;;;;;23.42;63.51;101007.25;5100241;27;45498;-79
2023/06/26 01:24:14;;;;;;;;;4.00;4.00;;;;;23.42;63.71;101011.78;5081179;27;45453;-79
2023/06/26 01:26:44;;;;;;;;;5.33;5.00;;;;;23.36;62.62;101026.47;5101178;27;45441;-79
2023/06/26 01:29:12;;;;;;;;;4.00;4.00;;;;;23.23;63.89;101022.38;5103107;27;45441;-79
2023/06/26 01:31:39;;;;;;;;;4.00;4.00;;;;;23.11;64.21;101021.00;5085456;27;47071;-80
2023/06/26 01:34:04;;;;;;;;;4.00;4.00;;;;;23.09;64.05;101023.75;5105293;27;45444;-79
2023/06/26 01:36:30;;;;;;;;;5.33;5.00;;;;;23.00;64.76;101034.84;5103888;27;45406;-79
2023/06/26 01:38:56;;;;;;;;;4.00;3.00;;;;;22.84;65.11;101023.63;5086593;27;45420;-79
2023/06/26 01:41:21;;;;;;;;;5.00;5.00;;;;;22.95;64.69;101039.56;5104147;27;45724;-79
2023/06/26 01:43:59;;;;;;;;;5.00;5.00;;;;;22.97;63.88;101035.84;5104251;27;45423;-79
2023/06/26 01:46:30;;;;;;;;;2.33;2.00;;;;;23.06;64.00;101033.81;5104521;27;45377;-79
2023/06/26 01:49:00;;;;;;;;;3.67;3.67;;;;;22.97;63.79;101052.13;5086647;27;45335;-80
2023/06/26 01:51:32;;;;;;;;;6.00;5.00;;;;;22.88;63.84;101038.84;5104469;27;45553;-80
2023/06/26 01:54:02;;;;;;;;;3.33;3.00;;;;;22.74;64.02;101050.16;5103530;27;45384;-79
2023/06/26 01:56:28;;;;;;;;;4.00;4.00;;;;;22.69;64.02;101045.81;5103782;27;45707;-80
2023/06/26 01:58:54;;;;;;;;;4.00;3.00;;;;;22.52;64.56;101041.81;5104158;27;45482;-78
2023/06/26 02:01:20;;;;;;;;;3.67;1.67;;;;;22.54;63.81;101053.50;5084782;27;47275;-79
2023/06/26 02:03:46;;;;;;;;;3.00;3.00;;;;;22.49;63.51;101050.03;5084081;27;45855;-79
2023/06/26 02:06:11;;;;;;;;;3.00;3.00;;;;;22.51;63.28;101049.97;5102995;27;45377;-78
2023/06/26 02:08:37;;;;;;;;;2.33;2.33;;;;;22.40;63.47;101066.59;5084547;27;45451;-79
2023/06/26 02:11:02;;;;;;;;;2.00;2.00;;;;;22.33;63.84;101060.44;5084826;27;47016;-79
2023/06/26 02:13:27;;;;;;;;;4.00;4.00;;;;;22.38;63.60;101068.44;5103381;27;45700;-79
2023/06/26 02:15:53;;;;;;;;;5.00;3.67;;;;;22.43;64.05;101077.31;5103552;27;45337;-77
2023/06/26 02:18:18;;;;;;;;;2.00;2.00;;;;;22.47;62.88;101070.88;5102673;27;45476;-78
2023/06/26 02:20:44;;;;;;;;;4.00;2.00;;;;;22.42;63.21;101069.22;5084367;27;47107;-79
2023/06/26 02:23:09;;;;;;;;;3.00;1.00;;;;;22.34;63.80;101072.19;5101761;27;45412;-80
2023/06/26 02:25:35;;;;;;;;;2.67;2.67;;;;;22.37;63.87;101077.50;5083786;27;45339;-79
2023/06/26 02:28:00;;;;;;;;;2.67;2.67;;;;;22.22;64.27;101072.47;5103659;27;45574;-79
2023/06/26 02:30:26;;;;;;;;;2.00;2.00;;;;;22.12;64.35;101080.88;5101326;27;46961;-78
2023/06/26 02:32:51;;;;;;;;;4.00;3.00;;;;;22.11;64.44;101075.50;5102398;27;45499;-79
2023/06/26 02:35:17;;;;;;;;;1.33;1.33;;;;;22.13;64.59;101076.34;5103327;27;45479;-79
2023/06/26 02:37:42;;;;;;;;;3.00;3.00;;;;;22.20;63.36;101090.59;5103024;27;45481;-78
2023/06/26 02:40:09;;;;;;;;;3.00;3.00;;;;;22.23;63.94;101090.53;5104508;27;45419;-78
2023/06/26 02:42:35;;;;;;;;;3.00;3.00;;;;;22.12;64.27;101102.56;5086513;27;45462;-78
2023/06/26 02:45:00;;;;;;;;;3.00;2.00;;;;;22.02;64.38;101092.91;5104060;27;45799;-80
2023/06/26 02:47:26;;;;;;;;;1.67;1.67;;;;;22.06;64.30;101099.16;5086374;27;45337;-78
2023/06/26 02:49:51;;;;;;;;;2.00;2.00;;;;;22.04;64.66;101093.75;5102407;27;45392;-79
2023/06/26 02:52:16;;;;;;;;;2.00;2.00;;;;;22.09;64.49;101102.63;5104297;27;45360;-80
2023/06/26 02:54:41;;;;;;;;;3.00;2.67;;;;;22.08;64.34;101098.16;5105896;27;45262;-80
2023/06/26 02:57:07;;;;;;;;;2.67;2.67;;;;;22.13;64.43;101096.19;5104938;27;45443;-79
2023/06/26 02:59:32;;;;;;;;;4.00;3.00;;;;;22.02;65.09;101101.03;5103420;27;45784;-78
2023/06/26 03:01:58;;;;;;;;;5.00;3.00;;;;;21.93;64.29;101104.88;5102208;27;45388;-79
2023/06/26 03:04:24;;;;;;;;;2.00;2.00;;;;;21.84;65.41;101110.56;5085298;27;45148;-79
2023/06/26 03:06:49;;;;;;;;;3.67;3.67;;;;;21.76;65.30;101107.16;5104048;27;45389;-79
2023/06/26 03:09:17;;;;;;;;;1.67;1.67;;;;;21.83;65.17;101111.47;5085789;27;47285;-79
2023/06/26 03:11:43;;;;;;;;;3.00;3.00;;;;;21.92;65.23;101113.06;5104884;27;45471;-79
2023/06/26 03:14:11;;;;;;;;;3.00;3.00;;;;;22.02;65.84;101105.59;5103881;27;45378;-80
2023/06/26 03:16:37;;;;;;;;;5.33;4.67;;;;;22.07;64.94;101118.03;5105666;27;44775;-79
2023/06/26 03:19:02;;;;;;;;;4.33;3.33;;;;;22.03;64.45;101129.88;5102593;27;45415;-78
2023/06/26 03:21:27;;;;;;;;;4.00;3.00;;;;;21.92;65.42;101123.91;5103801;27;45417;-79
2023/06/26 03:23:59;;;;;;;;;3.00;3.00;;;;;22.08;65.16;101117.13;5102278;27;45410;-79
2023/06/26 03:26:27;;;;;;;;;3.67;3.67;;;;;22.00;65.11;101121.00;5084418;27;45448;-79
2023/06/26 03:28:54;;;;;;;;;3.00;1.00;;;;;22.06;66.23;101121.69;5083982;27;47579;-79
2023/06/26 03:31:20;;;;;;;;;4.67;2.67;;;;;21.89;65.65;101123.97;5102861;27;45424;-78
2023/06/26 03:33:46;;;;;;;;;4.00;4.00;;;;;21.84;66.04;101123.22;5084935;27;45516;-79
2023/06/26 03:36:11;;;;;;;;;3.00;3.00;;;;;21.93;66.62;101131.94;5084751;27;45530;-78
2023/06/26 03:38:41;;;;;;;;;3.33;3.33;;;;;22.08;65.86;101136.09;5085364;27;45656;-80
2023/06/26 03:41:06;;;;;;;;;9.00;5.00;;;;;21.98;65.59;101142.69;5104359;27;45381;-80
2023/06/26 03:43:32;;;;;;;;;4.00;2.33;;;;;22.02;65.21;101132.66;5085546;27;45425;-80
2023/06/26 03:45:57;;;;;;;;;4.33;4.33;;;;;21.99;65.50;101136.31;5085120;27;45405;-79
2023/06/26 03:48:23;;;;;;;;;5.67;5.67;;;;;21.95;66.95;101142.75;5083888;27;46403;-78
2023/06/26 03:50:48;;;;;;;;;4.33;4.33;;;;;21.92;65.73;101151.84;5100568;27;45429;-79
2023/06/26 03:53:14;;;;;;;;;6.67;5.67;;;;;21.92;66.42;101150.97;5084198;27;45454;-79
2023/06/26 03:55:39;;;;;;;;;4.00;4.00;;;;;21.97;65.22;101159.84;5103627;27;45427;-79
2023/06/26 03:58:04;;;;;;;;;5.00;4.00;;;;;22.02;66.17;101157.03;5083766;27;47404;-78
2023/06/26 04:00:30;;;;;;;;;7.00;5.33;;;;;22.01;65.27;101166.97;5083936;27;45417;-79
2023/06/26 04:02:57;;;;;;;;;5.33;3.67;;;;;22.01;65.40;101166.97;5084666;27;46020;-79
2023/06/26 04:05:22;;;;;;;;;6.00;4.33;;;;;22.00;65.40;101162.50;5084190;27;45658;-78
2023/06/26 04:07:52;;;;;;;;;5.33;4.67;;;;;22.12;65.08;101169.41;5102088;27;45481;-78
2023/06/26 04:10:18;;;;;;;;;7.00;5.67;;;;;21.97;66.00;101176.97;5085083;27;45347;-78
2023/06/26 04:12:43;;;;;;;;;5.00;3.67;;;;;21.90;65.63;101188.03;5084149;27;44807;-79
2023/06/26 04:15:09;;;;;;;;;4.33;3.67;;;;;21.93;65.66;101191.53;5084843;27;45527;-79
2023/06/26 04:17:34;;;;;;;;;5.00;5.00;;;;;22.00;65.78;101186.88;5100256;27;45752;-79
2023/06/26 04:20:00;;;;;;;;;5.00;5.00;;;;;22.03;66.12;101191.31;5104294;27;45345;-79
2023/06/26 04:22:25;;;;;;;;;6.00;4.00;;;;;21.97;65.79;101190.53;5104039;27;45616;-79
2023/06/26 04:24:51;;;;;;;;;4.00;4.00;;;;;22.02;66.09;101190.41;5083284;27;45492;-79
2023/06/26 04:27:17;;;;;;;;;4.33;4.33;;;;;22.07;65.62;101185.75;5101933;27;46079;-80
2023/06/26 04:29:43;;;;;;;;;4.67;4.67;;;;;22.16;65.40;101193.66;5102274;27;45527;-78
2023/06/26 04:32:09;;;;;;;;;4.00;4.00;;;;;22.22;64.58;101180.84;5101664;27;45461;-79
2023/06/26 04:34:36;;;;;;;;;8.00;3.33;;;;;22.31;64.66;101197.78;5082705;27;45488;-79
2023/06/26 04:37:03;;;;;;;;;4.00;4.00;;;;;22.39;64.31;101200.28;5102298;27;45504;-80
2023/06/26 04:39:29;;;;;;;;;5.00;5.00;;;;;22.43;64.19;101196.56;5102782;27;45538;-80
2023/06/26 04:41:55;;;;;;;;;6.00;6.00;;;;;22.45;64.23;101205.53;5084740;27;45465;-79
2023/06/26 04:44:27;;;;;;;;;2.33;2.33;;;;;22.49;64.57;101198.22;5084269;27;45581;-79
2023/06/26 04:46:52;;;;;;;;;3.67;2.67;;;;;22.65;63.70;101204.97;5102537;27;46444;-79
2023/06/26 04:49:18;;;;;;;;;2.33;2.33;;;;;22.65;63.38;101195.97;5100956;27;45281;-78
2023/06/26 04:51:44;;;;;;;;;3.33;3.00;;;;;22.64;63.52;101200.47;5102528;27;45866;-78
2023/06/26 04:54:12;;;;;;;;;6.00;3.67;;;;;22.71;63.46;101201.22;5084262;27;45394;-79
2023/06/26 04:56:39;;;;;;;;;5.67;4.00;;;;;22.62;63.84;101206.88;5081931;27;47665;-79
2023/06/26 04:59:05;;;;;;;;;3.33;3.33;;;;;22.55;63.55;101207.06;5066119;27;45431;-79
2023/06/26 05:01:32;;;;;;;;;4.67;4.67;;;;;22.66;63.01;101214.91;5102117;27;45453;-79
2023/06/26 05:03:57;;;;;;;;;6.00;4.67;;;;;22.68;63.10;101217.56;5105430;27;45468;-79
2023/06/26 05:06:23;;;;;;;;;3.33;3.33;;;;;22.65;63.22;101217.66;5086606;27;45359;-78
2023/06/26 05:08:48;;;;;;;;;3.00;3.00;;;;;22.65;63.00;101217.66;5085740;27;45808;-80
2023/06/26 05:11:13;;;;;;;;;5.67;5.00;;;;;22.69;63.45;101220.22;5103537;27;45396;-78
2023/06/26 05:13:40;;;;;;;;;4.00;3.00;;;;;22.76;62.90;101223.63;5086434;27;45360;-79
2023/06/26 05:16:08;;;;;;;;;4.00;3.67;;;;;22.77;63.29;101230.84;5086714;27;46885;-79
2023/06/26 05:18:33;;;;;;;;;4.67;4.67;;;;;22.77;62.41;101233.56;5104421;27;45495;-77
2023/06/26 05:20:59;;;;;;;;;3.33;3.33;;;;;22.73;61.79;101227.34;5104211;27;45506;-78
2023/06/26 05:23:26;;;;;;;;;5.00;4.00;;;;;22.72;63.01;101238.22;5087968;27;44800;-80
2023/06/26 05:25:52;;;;;;;;;4.67;4.00;;;;;22.64;63.16;101240.25;5087194;27;47507;-80
2023/06/26 05:28:18;;;;;;;;;4.33;4.33;;;;;22.63;63.10;101241.22;5104474;27;45508;-79
2023/06/26 05:30:43;;;;;;;;;5.00;5.00;;;;;22.57;64.20;101240.44;5086684;27;45761;-79
2023/06/26 05:33:11;;;;;;;;;5.67;5.67;;;;;22.57;63.30;101243.16;5087159;27;45471;-79
2023/06/26 05:35:37;;;;;;;;;8.00;7.00;;;;;22.50;63.39;101236.13;5106323;27;45390;-79
2023/06/26 05:38:03;;;;;;;;;6.67;6.67;;;;;22.59;62.77;101242.22;5104862;27;45508;-80
2023/06/26 05:40:28;;;;;;;;;6.33;6.33;;;;;22.70;63.16;101243.72;5086564;27;45545;-79
2023/06/26 05:42:54;;;;;;;;;6.33;5.00;;;;;22.71;62.27;101241.88;5087640;27;45578;-79
2023/06/26 05:45:19;;;;;;;;;9.00;8.33;;;;;22.54;63.49;101232.41;5106847;27;46290;-79
2023/06/26 05:47:46;;;;;;;;;6.67;4.33;;;;;22.45;63.65;101238.06;5106303;27;45321;-79
2023/06/26 05:50:12;;;;;;;;;9.00;8.00;;;;;22.45;63.69;101248.03;5104865;27;45838;-79
2023/06/26 05:52:44;;;;;;;;;6.67;6.33;;;;;22.43;63.84;101245.34;5104196;27;45247;-79
2023/06/26 05:55:10;;;;;;;;;7.00;7.00;;;;;22.41;63.45;101243.63;5104572;27;45524;-79
2023/06/26 05:57:37;;;;;;;;;7.00;6.00;;;;;22.50;62.89;101248.78;5087386;27;46072;-79
2023/06/26 06:00:10;;;;;;;;;6.67;6.00;;;;;22.56;62.94;101246.81;5086812;27;45453;-78
2023/06/26 06:02:36;;;;;;;;;5.67;5.33;;;;;22.56;62.50;101246.81;5105580;27;45467;-80
2023/06/26 06:05:02;;;;;;;;;8.00;7.00;;;;;22.62;62.48;101250.25;5087417;27;47814;-80
2023/06/26 06:07:27;;;;;;;;;6.33;6.33;;;;;22.65;62.16;101245.66;5106784;27;45400;-79
2023/06/26 06:09:53;;;;;;;;;7.00;6.00;;;;;22.68;61.97;101247.38;5106846;27;45397;-79
2023/06/26 06:12:22;;;;;;;;;7.33;6.33;;;;;22.97;61.90;101247.44;5109595;27;45406;-78
2023/06/26 06:14:48;;;;;;;;;7.00;5.00;;;;;23.07;61.38;101245.38;5100124;27;45553;-76
2023/06/26 06:17:13;;;;;;;;;6.33;6.33;;;;;23.26;60.81;101242.09;5083587;28;45428;-77
2023/06/26 06:19:39;;;;;;;;;6.33;6.33;;;;;23.42;60.08;101247.94;5058973;28;45533;-77
2023/06/26 06:22:04;;;;;;;;;8.33;6.00;;;;;23.54;59.62;101251.16;5060679;28;44892;-77
2023/06/26 06:24:29;;;;;;;;;7.00;5.00;;;;;23.63;59.30;101258.13;5058693;28;47082;-79
2023/06/26 06:26:55;;;;;;;;;8.33;7.00;;;;;23.68;58.78;101253.44;5062418;28;45377;-76
2023/06/26 06:29:23;;;;;;;;;4.67;4.00;;;;;23.79;59.02;101260.38;5060654;28;45504;-77
2023/06/26 06:31:49;;;;;;;;;5.67;5.67;;;;;23.86;58.50;101272.84;5061813;28;45792;-77
2023/06/26 06:34:14;;;;;;;;;6.00;6.00;;;;;23.89;57.66;101287.19;5060117;28;45540;-77
2023/06/26 06:36:39;;;;;;;;;8.00;6.00;;;;;23.79;57.43;101282.09;5062686;28;45468;-77
2023/06/26 06:39:05;;;;;;;;;5.00;5.00;;;;;23.71;57.84;101280.50;5058554;28;45403;-76
2023/06/26 06:41:30;;;;;;;;;6.67;6.00;;;;;23.87;57.83;101294.47;5058593;28;45349;-77
2023/06/26 06:43:55;;;;;;;;;5.67;4.67;;;;;23.73;56.97;101297.63;5060234;28;45977;-77
2023/06/26 06:46:21;;;;;;;;;7.67;7.00;;;;;23.34;56.86;101294.31;5061203;28;45514;-76
2023/06/26 06:48:46;;;;;;;;;8.67;6.00;;;;;23.19;58.27;101290.25;5059820;28;45493;-78
2023/06/26 06:51:12;;;;;;;;;9.00;7.67;;;;;23.23;58.10;101307.31;5061345;28;45393;-76
2023/06/26 06:53:39;;;;;;;;;9.00;9.00;;;;;23.41;58.24;101295.00;5065589;28;47143;-77
2023/06/26 06:56:05;;;;;;;;;8.33;7.00;;;;;23.23;58.09;101291.94;5063818;28;45438;-78
2023/06/26 06:58:33;;;;;;;;;9.67;8.33;;;;;23.30;58.08;101290.81;5062248;28;45444;-78
2023/06/26 07:00:59;;;;;;;;;6.33;6.33;;;;;23.40;57.55;101287.81;5063130;28;45782;-79
2023/06/26 07:03:24;;;;;;;;;7.00;7.00;;;;;23.43;57.74;101295.84;5064683;28;46700;-78
2023/06/26 07:05:50;;;;;;;;;6.33;6.33;;;;;23.51;57.04;101302.84;5076442;28;45438;-79
2023/06/26 07:08:17;;;;;;;;;8.67;7.00;;;;;23.35;56.85;101297.00;5081271;28;45997;-79
2023/06/26 07:11:09;;;;;;;;;8.67;8.67;;;;;23.51;57.00;101296.50;5063444;28;45485;-77
2023/06/26 07:13:40;;;;;;;;;9.00;7.00;;;;;23.63;57.00;101282.56;5064115;27;45377;-78
2023/06/26 07:16:11;;;;;;;;;7.00;5.00;;;;;23.71;56.17;101268.72;5076903;28;45436;-78
2023/06/26 07:22:03;;;;;;;;;9.67;6.00;;;;;23.63;55.53;101274.44;5083444;27;45066;-79
2023/06/26 07:24:32;;;;;;;;;9.33;6.33;;;;;23.71;55.58;101285.94;5087365;27;47370;-83
2023/06/26 07:26:58;;;;;;;;;8.00;7.00;;;;;23.90;55.54;101282.66;5096444;27;45372;-81
2023/06/26 07:29:35;;;;;;;;;7.33;7.00;;;;;24.53;54.98;101300.44;5072374;28;44777;-80
2023/06/26 07:32:43;;;;;;;;;7.33;7.00;;;;;24.93;53.59;101320.78;5103550;27;45362;-79
2023/06/26 07:35:11;;;;;;;;;6.33;6.00;;;;;24.47;53.04;101297.91;5080010;27;47238;-81
2023/06/26 07:37:37;;;;;;;;;8.00;7.00;;;;;24.15;53.10;101315.31;5079975;27;45695;-80
2023/06/26 07:40:03;;;;;;;;;6.00;6.00;;;;;24.12;53.96;101315.44;5105182;27;45428;-79
2023/06/26 07:42:29;;;;;;;;;6.00;6.00;;;;;24.15;53.95;101310.75;5078745;27;45748;-79
2023/06/26 07:44:57;;;;;;;;;5.00;5.00;;;;;24.32;53.58;101321.09;5082789;27;47392;-80
2023/06/26 07:47:23;;;;;;;;;7.00;4.67;;;;;23.93;53.60;101317.84;5094828;27;56905;-82
2023/06/26 07:49:49;;;;;;;;;8.00;5.00;;;;;23.84;54.19;101327.19;5090124;27;45961;-84
2023/06/26 07:52:15;;;;;;;;;5.00;4.67;;;;;24.13;54.35;101328.06;5076636;27;44954;-82
2023/06/26 07:54:41;;;;;;;;;5.00;5.00;;;;;24.56;54.17;101326.63;5087368;27;46791;-83
2023/06/26 07:57:07;;;;;;;;;5.33;5.00;;;;;24.77;51.96;101319.56;5092376;27;45852;-86
2023/06/26 07:59:33;;;;;;;;;0.00;0.00;;;;;24.49;51.56;101331.38;5081265;27;44898;-85
2023/06/26 08:01:58;;;;;;;;;5.33;5.00;;;;;24.27;51.98;101330.34;5102289;27;45371;-85
2023/06/26 08:04:31;;;;;;;;;6.00;5.00;;;;;24.44;53.02;101325.22;5090562;28;44924;-82
2023/06/26 08:07:00;;;;;;;;;6.33;5.33;;;;;24.78;52.17;101324.06;5094796;27;45429;-84
2023/06/26 08:09:32;;;;;;;;;7.00;7.00;;;;;24.98;51.60;101346.94;5085388;27;45524;-82
2023/06/26 08:11:59;;;;;;;;;6.00;4.00;;;;;24.79;51.65;101334.00;5077135;27;45539;-82
2023/06/26 08:14:31;;;;;;;;;4.67;4.67;;;;;24.99;51.52;101340.56;5070420;28;46910;-83
2023/06/26 08:17:17;;;;;;;;;5.67;4.33;;;;;25.01;50.52;101335.97;5089143;27;45581;-83
2023/06/26 08:19:58;;;;;;;;;6.67;6.67;;;;;25.15;50.01;101347.22;5095886;27;45349;-84
2023/06/26 08:22:40;;;;;;;;;7.67;6.00;;;;;25.08;50.11;101341.09;5086219;27;45800;-85
2023/06/26 08:25:16;;;;;;;;;4.00;4.00;;;;;25.32;48.99;101355.66;5100041;27;45659;-83
2023/06/26 08:27:42;;;;;;;;;4.33;4.33;;;;;25.33;49.72;101338.38;5095975;27;45569;-82
2023/06/26 08:30:09;;;;;;;;;3.67;3.67;;;;;25.16;48.41;101317.19;5090258;27;45457;-85
2023/06/26 08:32:51;;;;;;;;;5.00;5.00;;;;;25.40;48.98;101332.72;5081450;27;45629;-85
2023/06/26 08:35:16;;;;;;;;;5.00;4.00;;;;;25.23;47.64;101307.03;5079002;27;45772;-85
2023/06/26 08:37:42;;;;;;;;;4.00;4.00;;;;;25.33;47.73;101324.78;5074830;27;45504;-83
2023/06/26 08:40:08;;;;;;;;;5.00;5.00;;;;;25.40;48.41;101319.09;5102684;27;45630;-84
2023/06/26 08:42:34;;;;;;;;;8.00;5.00;;;;;25.56;48.42;101323.00;5078971;27;45376;-83
2023/06/26 08:45:12;;;;;;;;;5.00;5.00;;;;;25.59;46.82;101341.91;5092437;27;45538;-84
2023/06/26 08:47:37;;;;;;;;;3.67;3.67;;;;;25.16;47.56;101341.69;5082742;28;44895;-83
2023/06/26 08:50:14;;;;;;;;;6.67;6.00;;;;;25.03;47.12;101323.19;5078609;27;45510;-84
2023/06/26 08:52:45;;;;;;;;;6.00;4.00;;;;;25.16;47.77;101332.66;5073831;27;45086;-82
2023/06/26 08:55:16;;;;;;;;;4.67;4.00;;;;;25.28;47.97;101312.28;5094976;27;45406;-81
2023/06/26 08:57:41;;;;;;;;;9.00;6.00;;;;;25.59;46.76;101336.47;5097345;27;45888;-82
2023/06/26 09:00:09;;;;;;;;;5.00;5.00;;;;;25.57;46.50;101332.03;5074637;28;45753;-79
2023/06/26 09:02:38;;;;;;;;;4.67;4.67;;;;;25.39;46.92;101339.09;5086494;27;44935;-81
2023/06/26 09:05:07;;;;;;;;;4.00;4.00;;;;;25.56;46.91;101336.63;5089644;27;45329;-82
2023/06/26 09:07:33;;;;;;;;;5.33;5.33;;;;;25.65;47.13;101341.72;5080519;28;45464;-82
2023/06/26 09:09:58;;;;;;;;;5.00;5.00;;;;;25.93;46.16;101341.53;5070953;28;45462;-83
2023/06/26 09:15:47;;;;;;;;;7.67;6.00;;;;;26.61;45.25;101338.72;5093794;27;44892;-82
2023/06/26 09:18:13;;;;;;;;;3.67;3.33;;;;;26.37;43.31;101346.06;5084968;27;45787;-81
2023/06/26 09:20:40;;;;;;;;;5.33;4.00;;;;;26.08;43.79;101348.19;5076242;27;45527;-82
2023/06/26 09:23:06;;;;;;;;;4.67;4.67;;;;;25.77;44.04;101339.44;5056733;28;45808;-81
2023/06/26 09:25:37;;;;;;;;;6.00;4.33;;;;;25.51;44.01;101328.63;5087719;28;46367;-83
2023/06/26 09:28:07;;;;;;;;;5.00;4.00;;;;;25.59;43.90;101325.56;5077666;28;45326;-81
2023/06/26 09:30:33;;;;;;;;;4.00;4.00;;;;;25.70;43.62;101314.28;5069145;28;45475;-80
2023/06/26 09:33:26;;;;;;;;;5.33;4.00;;;;;26.07;42.56;101343.66;5069386;28;45801;-83
2023/06/26 09:35:55;;;;;;;;;3.00;3.00;;;;;25.92;42.82;101330.69;5057164;28;48010;-81
2023/06/26 09:38:26;;;;;;;;;3.00;3.00;;;;;26.17;42.99;101336.00;5080265;28;45456;-82
2023/06/26 09:40:52;;;;;;;;;4.00;4.00;;;;;26.47;42.84;101338.41;5064161;27;44911;-83
2023/06/26 09:46:31;;;;;;;;;2.33;1.33;;;;;26.44;41.21;101342.16;5070225;28;46136;-84
2023/06/26 09:49:13;;;;;;;;;3.00;3.00;;;;;26.10;42.20;101331.78;5048163;28;45747;-81
2023/06/26 09:51:41;;;;;;;;;5.33;4.67;;;;;26.12;42.75;101343.50;5058682;28;45447;-83
2023/06/26 09:54:21;;;;;;;;;5.33;4.67;;;;;26.26;42.44;101353.84;5062764;28;45490;-82
2023/06/26 09:56:56;;;;;;;;;;;;;;;;;;;;;
2023/06/26 09:59:45;;;;;;;;;6.67;4.33;;;;;26.51;42.29;101354.56;5082463;27;72304;-81
2023/06/26 10:02:25;;;;;;;;;3.00;3.00;;;;;26.37;41.88;101345.19;5077987;28;45588;-84
2023/06/26 10:04:57;;;;;;;;;3.67;2.67;;;;;26.30;41.37;101341.84;5035509;28;45577;-83
2023/06/26 10:07:24;;;;;;;;;4.67;4.67;;;;;26.06;41.14;101354.66;5061334;28;45338;-81
2023/06/26 10:10:45;;;;;;;;;4.33;3.33;;;;;26.14;41.19;101360.69;5085072;28;45409;-82
2023/06/26 10:13:17;;;;;;;;;5.00;3.00;;;;;26.33;41.51;101349.88;5065620;28;45367;-82
2023/06/26 10:15:57;;;;;;;;;3.00;3.00;;;;;26.54;42.29;101348.97;5038875;28;44789;-83
2023/06/26 10:18:27;;;;;;;;;5.67;4.67;;;;;26.77;41.45;101360.75;5083355;28;46475;-83
2023/06/26 10:20:57;;;;;;;;;5.00;4.00;;;;;26.63;40.41;101341.38;5078730;27;45018;-80
2023/06/26 10:23:25;;;;;;;;;3.33;3.33;;;;;26.26;41.27;101351.13;5067414;28;44909;-81
2023/06/26 10:25:53;;;;;;;;;5.00;5.00;;;;;26.09;41.29;101363.56;5086042;28;45375;-81
2023/06/26 10:28:22;;;;;;;;;4.00;4.00;;;;;25.98;41.51;101371.31;5064689;28;46434;-81
2023/06/26 10:30:51;;;;;;;;;4.33;4.33;;;;;25.90;41.24;101365.28;5065384;28;45430;-81
2023/06/26 10:33:21;;;;;;;;;4.33;3.00;;;;;25.94;40.81;101364.22;5059891;28;45500;-81
2023/06/26 10:36:20;;;;;;;;;4.00;4.00;;;;;26.21;39.61;101361.31;5054360;28;45453;-82
2023/06/26 10:42:13;;;;;;;;;4.00;4.00;;;;;26.74;40.40;101360.88;5017437;28;46275;-81
2023/06/26 10:47:48;;;;;;;;;5.00;4.00;;;;;26.90;39.44;101323.75;5018586;28;44845;-81
2023/06/26 10:50:28;;;;;;;;;4.67;4.67;;;;;27.32;38.91;101354.69;5026922;28;45556;-81
2023/06/26 10:53:18;;;;;;;;;1.00;1.00;;;;;27.30;39.13;101349.28;5021809;28;46058;-76
2023/06/26 10:55:58;;;;;;;;;6.67;6.67;;;;;27.26;37.90;101352.25;5011400;28;45463;-76
2023/06/26 10:58:50;;;;;;;;;4.67;4.67;;;;;27.32;38.18;101352.84;5010320;28;46135;-76
2023/06/26 11:01:27;;;;;;;;;8.67;8.67;;;;;27.24;37.78;101349.56;5003245;28;46282;-76
2023/06/26 11:04:10;;;;;;;;;6.00;6.00;;;;;27.04;37.50;101335.91;4996882;28;45455;-76
2023/06/26 11:06:44;;;;;;;;;6.00;6.00;;;;;26.71;38.02;101345.53;5000524;28;45622;-78
2023/06/26 11:09:15;;;;;;;;;8.33;8.33;;;;;26.67;38.07;101356.66;4998919;28;45532;-78
2023/06/26 11:11:53;;;;;;;;;6.00;4.00;;;;;26.76;37.78;101358.09;5000740;28;45284;-77
2023/06/26 11:14:21;;;;;;;;;11.67;11.67;;;;;26.72;39.20;101349.16;5002227;28;45451;-77
2023/06/26 11:16:49;;;;;;;;;10.33;10.33;;;;;27.12;38.43;101344.66;5003395;28;45675;-75
2023/06/26 11:19:19;;;;;;;;;3.67;3.67;;;;;27.45;37.36;101352.25;5018561;28;45743;-76
2023/06/26 11:21:45;;;;;;;;;8.33;8.33;;;;;27.70;38.13;101350.16;5027602;28;45480;-77
2023/06/26 11:24:12;;;;;;;;;11.00;10.00;;;;;28.06;37.24;101343.88;5037979;28;45445;-77
2023/06/26 11:26:39;;;;;;;;;1.00;1.00;;;;;28.04;34.52;101362.22;5044328;28;45688;-76
2023/06/26 11:29:06;;;;;;;;;5.67;4.00;;;;;27.86;34.13;101354.88;5057617;28;45657;-76
2023/06/26 11:31:33;;;;;;;;;4.33;4.33;;;;;27.68;34.95;101359.38;5064372;28;45433;-76
2023/06/26 11:34:00;;;;;;;;;6.33;4.67;;;;;27.63;35.51;101348.69;5060886;28;45733;-77
2023/06/26 11:36:27;;;;;;;;;5.00;5.00;;;;;27.50;35.84;101355.69;5077633;28;45445;-75
2023/06/26 11:39:00;;;;;;;;;5.33;5.33;;;;;27.61;36.30;101364.28;5060957;28;45528;-75
2023/06/26 11:41:28;;;;;;;;;12.33;7.67;;;;;27.58;36.13;101353.47;5075568;28;45527;-77
2023/06/26 11:43:55;;;;;;;;;5.33;5.00;;;;;27.40;36.58;101368.00;5041351;28;45553;-78
2023/06/26 11:46:22;;;;;;;;;4.67;4.67;;;;;27.01;37.40;101358.78;5084697;28;44744;-76
2023/06/26 11:48:48;;;;;;;;;5.67;5.67;;;;;26.85;37.57;101361.31;5048771;28;45456;-76